Main page
METAR-TAF:

METAR-TAF

Airports :

Ouagadougou Airport

Ouagadougou, Burkina Faso

latitude: 12-21N, longitude: 001-31W, elevation: 316 m

Current weather observation

The report was made 26 minutes ago, at 21:00 UTC
Wind 2 kt from the North
Temperature 24°C
Humidity 31%
Pressure 1012 hPa
Visibility: 8000 m

METAR: DFFD 102100Z 01002KT 8000 NSC 24/06 Q1012 NOSIG

Time: 21:26 (21:26 UTC)

Forecast

The report was made 4 hours and 26 minutes ago, at 17:00 UTC
Forecast valid from 10 at 18 UTC to 11 at 24 UTC
Wind 8 kt from the Northeast
Visibility: 8000 m
Temporary
from 10 at 18 UTC to 10 at 21 UTC
Visibility: 4000 m
haze
Temporary
from 11 at 06 UTC to 11 at 10 UTC
Visibility: 2500 m
haze

TAF: DFFD 101700Z 1018/1124 04008KT 8000 NSC TEMPO 1018/1021 4000 HZ TEMPO 1106/1110 2500 HZ

Weather observations and forecasts of more than 4000 airports (METAR and TAF reports).

The available stations are represented by yellow and red dots on the map.

Hover mouse over dot to see the name of the station.

Then click to see weather observations and forecasts.

To change the map : click on the green buttons with a black cross to zoom in, on the green button with a dash to zoom out, or on the green arrows for adjacent maps.


METAR-TAF: